FWI904 LFBD-LFPO
Flight info
| Callsign | FWI904 |
|---|---|
| Flight time | N/A |
| Altitude | 26000 |
| Route | CNA DCT TUDRA DCT BEVOL UT158 AMB |
| Aircraft | A35K/H-SDE2E3GHIJ3J4J5LM1ORWXY/LB1D1 |
Departure
| Time | 2026-05-01 14:51 |
|---|---|
| Airport | Bordeaux–Mérignac Airport (LFBD) |
Arrival
| Time | N/A |
|---|---|
| Airport | Paris-Orly Airport (LFPO) |
| Time | Latitude | Longitude | Altitude | Speed | Heading |
|---|---|---|---|---|---|
| 2026-05-01 14:21 | 44.84299 | -0.71124 | 172 ft | 0 kts | 325° |
| 2026-05-01 14:25 | 44.84289 | -0.71115 | 172 ft | 3 kts | 328° |
| 2026-05-01 14:25 | 44.84273 | -0.71101 | 172 ft | 3 kts | 328° |
| 2026-05-01 14:26 | 44.84255 | -0.71089 | 172 ft | 3 kts | 343° |
| 2026-05-01 14:26 | 44.84216 | -0.71085 | 172 ft | 3 kts | 19° |
| 2026-05-01 14:26 | 44.84198 | -0.71094 | 172 ft | 3 kts | 31° |
| 2026-05-01 14:27 | 44.84183 | -0.71112 | 172 ft | 3 kts | 49° |
| 2026-05-01 14:27 | 44.84170 | -0.71131 | 172 ft | 3 kts | 49° |
| 2026-05-01 14:27 | 44.84158 | -0.71152 | 172 ft | 3 kts | 57° |
| 2026-05-01 14:28 | 44.84154 | -0.71160 | 172 ft | 0 kts | 65° |
| 2026-05-01 14:40 | 44.84157 | -0.71118 | 162 ft | 5 kts | 98° |
| 2026-05-01 14:40 | 44.84146 | -0.71081 | 162 ft | 7 kts | 121° |
| 2026-05-01 14:40 | 44.84099 | -0.71022 | 162 ft | 11 kts | 143° |
| 2026-05-01 14:40 | 44.84009 | -0.70908 | 162 ft | 15 kts | 115° |
| 2026-05-01 14:41 | 44.84011 | -0.70809 | 162 ft | 16 kts | 71° |
| 2026-05-01 14:41 | 44.84055 | -0.70653 | 162 ft | 19 kts | 68° |
| 2026-05-01 14:41 | 44.84110 | -0.70461 | 162 ft | 19 kts | 66° |
| 2026-05-01 14:41 | 44.84123 | -0.70323 | 163 ft | 12 kts | 116° |
| 2026-05-01 14:42 | 44.84058 | -0.70252 | 164 ft | 14 kts | 155° |
| 2026-05-01 14:42 | 44.84023 | -0.70230 | 163 ft | 0 kts | 156° |
| 2026-05-01 14:43 | 44.84017 | -0.70227 | 163 ft | 3 kts | 156° |
| 2026-05-01 14:44 | 44.83985 | -0.70206 | 163 ft | 7 kts | 156° |
| 2026-05-01 14:44 | 44.83845 | -0.70160 | 162 ft | 15 kts | 197° |
| 2026-05-01 14:44 | 44.83748 | -0.70271 | 159 ft | 20 kts | 226° |
| 2026-05-01 14:45 | 44.83640 | -0.70428 | 157 ft | 25 kts | 225° |
| 2026-05-01 14:45 | 44.83376 | -0.70805 | 164 ft | 28 kts | 225° |
| 2026-05-01 14:45 | 44.83228 | -0.71016 | 163 ft | 32 kts | 225° |
| 2026-05-01 14:46 | 44.83064 | -0.71250 | 159 ft | 35 kts | 225° |
| 2026-05-01 14:46 | 44.82922 | -0.71810 | 164 ft | 33 kts | 286° |
| 2026-05-01 14:46 | 44.82990 | -0.72138 | 162 ft | 36 kts | 286° |
| 2026-05-01 14:47 | 44.83063 | -0.72486 | 160 ft | 39 kts | 287° |
| 2026-05-01 14:47 | 44.83119 | -0.72830 | 160 ft | 15 kts | 267° |
| 2026-05-01 14:47 | 44.83119 | -0.72852 | 160 ft | 3 kts | 269° |
| 2026-05-01 14:48 | 44.83133 | -0.72867 | 160 ft | 1 kts | 355° |
| 2026-05-01 14:48 | 44.83138 | -0.72863 | 160 ft | 1 kts | 24° |
| 2026-05-01 14:48 | 44.83133 | -0.72815 | 160 ft | 8 kts | 106° |
| 2026-05-01 14:49 | 44.83131 | -0.72808 | 160 ft | 0 kts | 106° |
| 2026-05-01 14:50 | 44.82712 | -0.70819 | 261 ft | 185 kts | 107° |
| 2026-05-01 14:51 | 44.82355 | -0.68951 | 1052 ft | 210 kts | 106° |
| 2026-05-01 14:51 | 44.80201 | -0.66418 | 2715 ft | 229 kts | 182° |
| 2026-05-01 14:52 | 44.78046 | -0.69724 | 4627 ft | 270 kts | 265° |
| 2026-05-01 14:52 | 44.78551 | -0.72276 | 5595 ft | 286 kts | 303° |
| 2026-05-01 14:52 | 44.81973 | -0.75090 | 8088 ft | 287 kts | 339° |
| 2026-05-01 14:53 | 44.83947 | -0.75627 | 9360 ft | 294 kts | 359° |
| 2026-05-01 14:53 | 44.85968 | -0.75026 | 10500 ft | 303 kts | 20° |
| 2026-05-01 14:53 | 44.87992 | -0.73836 | 11176 ft | 329 kts | 24° |
| 2026-05-01 14:53 | 44.90158 | -0.72426 | 11766 ft | 354 kts | 25° |
| 2026-05-01 14:54 | 44.92390 | -0.70940 | 12672 ft | 366 kts | 25° |
| 2026-05-01 14:54 | 44.94750 | -0.69357 | 13811 ft | 374 kts | 25° |
| 2026-05-01 14:54 | 44.97128 | -0.67758 | 14811 ft | 381 kts | 25° |
| 2026-05-01 14:54 | 44.99545 | -0.66131 | 15756 ft | 388 kts | 25° |
| 2026-05-01 14:55 | 45.01969 | -0.64494 | 16732 ft | 395 kts | 25° |
| 2026-05-01 14:55 | 45.04465 | -0.62808 | 17736 ft | 400 kts | 25° |
| 2026-05-01 14:55 | 45.06993 | -0.61098 | 18706 ft | 405 kts | 25° |
| 2026-05-01 14:55 | 45.09556 | -0.59363 | 19599 ft | 411 kts | 25° |
| 2026-05-01 14:56 | 45.12155 | -0.57601 | 20531 ft | 417 kts | 25° |
| 2026-05-01 14:56 | 45.14784 | -0.55817 | 21453 ft | 422 kts | 25° |
| 2026-05-01 14:56 | 45.17447 | -0.54008 | 22374 ft | 427 kts | 25° |
| 2026-05-01 14:56 | 45.20145 | -0.52173 | 23288 ft | 433 kts | 25° |
| 2026-05-01 14:57 | 45.22880 | -0.50311 | 24144 ft | 438 kts | 25° |
| 2026-05-01 14:57 | 45.28442 | -0.46518 | 25587 ft | 450 kts | 25° |
| 2026-05-01 14:57 | 45.31281 | -0.44579 | 26035 ft | 453 kts | 25° |
| 2026-05-01 14:58 | 45.34140 | -0.42624 | 26173 ft | 463 kts | 25° |
| 2026-05-01 14:58 | 45.37114 | -0.40590 | 26184 ft | 485 kts | 25° |
| 2026-05-01 14:58 | 45.40188 | -0.38483 | 26180 ft | 493 kts | 25° |
| 2026-05-01 14:58 | 45.43283 | -0.36360 | 26181 ft | 495 kts | 25° |
| 2026-05-01 14:59 | 45.46370 | -0.34238 | 26182 ft | 495 kts | 25° |
| 2026-05-01 14:59 | 45.49485 | -0.32094 | 26183 ft | 495 kts | 25° |
| 2026-05-01 14:59 | 45.52585 | -0.29959 | 26183 ft | 495 kts | 25° |
| 2026-05-01 14:59 | 45.55681 | -0.27824 | 26184 ft | 495 kts | 25° |
| 2026-05-01 15:00 | 45.61877 | -0.23542 | 26181 ft | 495 kts | 25° |
| 2026-05-01 15:00 | 45.64981 | -0.21393 | 26183 ft | 495 kts | 25° |
| 2026-05-01 15:00 | 45.68080 | -0.19245 | 26183 ft | 495 kts | 25° |
| 2026-05-01 15:01 | 45.71183 | -0.17092 | 26174 ft | 495 kts | 25° |
| 2026-05-01 15:01 | 45.74267 | -0.14949 | 26178 ft | 495 kts | 25° |
| 2026-05-01 15:01 | 45.77375 | -0.12787 | 26176 ft | 495 kts | 25° |
| 2026-05-01 15:01 | 45.80468 | -0.10632 | 26175 ft | 495 kts | 25° |
| 2026-05-01 15:02 | 45.83571 | -0.08473 | 26173 ft | 492 kts | 24° |
| 2026-05-01 15:02 | 45.85614 | -0.07076 | 26173 ft | 493 kts | 25° |
| 2026-05-01 15:02 | 45.89728 | -0.04188 | 26174 ft | 492 kts | 26° |
| 2026-05-01 15:02 | 45.92799 | -0.02010 | 26173 ft | 492 kts | 26° |
| 2026-05-01 15:03 | 45.95870 | 0.00163 | 26175 ft | 492 kts | 26° |
| 2026-05-01 15:03 | 45.98954 | 0.02347 | 26185 ft | 493 kts | 26° |
| 2026-05-01 15:03 | 46.02039 | 0.04491 | 26186 ft | 498 kts | 24° |
| 2026-05-01 15:03 | 46.05191 | 0.06680 | 26178 ft | 500 kts | 25° |
| 2026-05-01 15:04 | 46.08295 | 0.08868 | 26182 ft | 496 kts | 25° |
| 2026-05-01 15:04 | 46.11375 | 0.11059 | 26186 ft | 491 kts | 25° |
| 2026-05-01 15:04 | 46.14394 | 0.13211 | 26187 ft | 490 kts | 24° |
| 2026-05-01 15:04 | 46.17503 | 0.15386 | 26193 ft | 490 kts | 23° |
| 2026-05-01 15:05 | 46.20522 | 0.17503 | 26192 ft | 489 kts | 23° |
| 2026-05-01 15:05 | 46.23624 | 0.19688 | 26188 ft | 488 kts | 23° |
| 2026-05-01 15:05 | 46.26632 | 0.21815 | 26194 ft | 488 kts | 23° |
| 2026-05-01 15:05 | 46.29715 | 0.24000 | 26192 ft | 487 kts | 23° |
| 2026-05-01 15:06 | 46.32733 | 0.26139 | 26193 ft | 487 kts | 23° |
| 2026-05-01 15:06 | 46.35775 | 0.28297 | 26196 ft | 488 kts | 23° |
| 2026-05-01 15:06 | 46.38833 | 0.30472 | 26199 ft | 489 kts | 25° |
| 2026-05-01 15:06 | 46.41873 | 0.32714 | 26193 ft | 494 kts | 26° |
| 2026-05-01 15:07 | 46.44965 | 0.34956 | 26187 ft | 497 kts | 25° |
| 2026-05-01 15:07 | 46.48067 | 0.37163 | 26187 ft | 494 kts | 24° |
| 2026-05-01 15:07 | 46.51144 | 0.39357 | 26183 ft | 493 kts | 25° |
| 2026-05-01 15:07 | 46.54222 | 0.41560 | 26185 ft | 493 kts | 24° |
| 2026-05-01 15:08 | 46.57296 | 0.43765 | 26198 ft | 493 kts | 24° |
| 2026-05-01 15:08 | 46.60375 | 0.45981 | 26180 ft | 492 kts | 24° |
| 2026-05-01 15:08 | 46.63443 | 0.48186 | 26180 ft | 492 kts | 24° |
| 2026-05-01 15:08 | 46.66505 | 0.50398 | 26180 ft | 492 kts | 24° |
| 2026-05-01 15:09 | 46.69563 | 0.52606 | 26182 ft | 492 kts | 24° |
| 2026-05-01 15:09 | 46.72633 | 0.54826 | 26185 ft | 492 kts | 24° |
| 2026-05-01 15:09 | 46.75702 | 0.57048 | 26202 ft | 492 kts | 24° |
| 2026-05-01 15:09 | 46.78764 | 0.59268 | 26189 ft | 492 kts | 24° |
| 2026-05-01 15:10 | 46.81828 | 0.61492 | 26187 ft | 492 kts | 24° |
| 2026-05-01 15:10 | 46.87955 | 0.65950 | 26208 ft | 492 kts | 24° |
| 2026-05-01 15:10 | 46.91019 | 0.68184 | 26209 ft | 492 kts | 24° |
| 2026-05-01 15:11 | 46.94081 | 0.70417 | 26193 ft | 492 kts | 24° |
| 2026-05-01 15:11 | 47.00201 | 0.74893 | 26197 ft | 491 kts | 24° |
| 2026-05-01 15:11 | 47.03256 | 0.77130 | 26197 ft | 491 kts | 24° |
| 2026-05-01 15:12 | 47.06309 | 0.79370 | 26198 ft | 491 kts | 24° |
| 2026-05-01 15:12 | 47.12418 | 0.83860 | 26197 ft | 491 kts | 24° |
| 2026-05-01 15:12 | 47.15472 | 0.86109 | 26197 ft | 492 kts | 24° |
| 2026-05-01 15:13 | 47.24636 | 0.92874 | 26192 ft | 491 kts | 24° |
| 2026-05-01 15:14 | 47.30669 | 0.97346 | 25721 ft | 473 kts | 24° |
| 2026-05-01 15:14 | 47.33520 | 0.99465 | 25503 ft | 458 kts | 24° |
| 2026-05-01 15:14 | 47.38206 | 1.02948 | 25177 ft | 450 kts | 24° |
| 2026-05-01 15:15 | 47.44806 | 1.07440 | 23868 ft | 447 kts | 18° |
| 2026-05-01 15:15 | 47.50817 | 1.10512 | 22820 ft | 462 kts | 18° |
| 2026-05-01 15:16 | 47.56868 | 1.13571 | 21712 ft | 455 kts | 18° |
| 2026-05-01 15:16 | 47.62816 | 1.16586 | 20694 ft | 449 kts | 19° |
| 2026-05-01 15:17 | 47.68702 | 1.19582 | 19673 ft | 443 kts | 19° |
| 2026-05-01 15:18 | 47.77370 | 1.24011 | 18132 ft | 435 kts | 19° |
| 2026-05-01 15:18 | 47.80182 | 1.25451 | 17634 ft | 432 kts | 20° |
| 2026-05-01 15:19 | 47.88660 | 1.29799 | 16153 ft | 426 kts | 20° |
| 2026-05-01 15:19 | 47.94224 | 1.32661 | 15201 ft | 421 kts | 20° |
| 2026-05-01 15:19 | 47.96992 | 1.34089 | 14725 ft | 418 kts | 20° |
| 2026-05-01 15:20 | 48.02450 | 1.36906 | 13751 ft | 412 kts | 20° |
| 2026-05-01 15:20 | 48.05142 | 1.38333 | 13276 ft | 409 kts | 23° |
| 2026-05-01 15:20 | 48.07610 | 1.40358 | 12966 ft | 398 kts | 35° |
| 2026-05-01 15:21 | 48.09856 | 1.42630 | 12728 ft | 380 kts | 36° |
| 2026-05-01 15:21 | 48.11996 | 1.44801 | 12479 ft | 365 kts | 36° |
| 2026-05-01 15:21 | 48.14065 | 1.46897 | 12203 ft | 352 kts | 36° |
| 2026-05-01 15:21 | 48.16056 | 1.48912 | 11912 ft | 340 kts | 36° |
| 2026-05-01 15:22 | 48.20172 | 1.53099 | 11666 ft | 388 kts | 36° |
| 2026-05-01 15:22 | 48.22337 | 1.55582 | 11637 ft | 394 kts | 48° |
| 2026-05-01 15:22 | 48.24003 | 1.58801 | 11638 ft | 391 kts | 56° |
| 2026-05-01 15:23 | 48.25174 | 1.60794 | 11523 ft | 375 kts | 46° |
| 2026-05-01 15:23 | 48.27183 | 1.63018 | 11080 ft | 349 kts | 31° |
| 2026-05-01 15:23 | 48.29256 | 1.64623 | 10807 ft | 320 kts | 28° |
| 2026-05-01 15:23 | 48.31175 | 1.66041 | 10639 ft | 299 kts | 28° |
| 2026-05-01 15:24 | 48.33015 | 1.67397 | 10497 ft | 290 kts | 28° |
| 2026-05-01 15:24 | 48.34807 | 1.68711 | 10366 ft | 283 kts | 28° |
| 2026-05-01 15:24 | 48.36572 | 1.70005 | 10247 ft | 285 kts | 28° |
| 2026-05-01 15:24 | 48.38341 | 1.71521 | 10208 ft | 298 kts | 33° |
| 2026-05-01 15:25 | 48.40070 | 1.73270 | 10191 ft | 299 kts | 41° |
| 2026-05-01 15:25 | 48.41743 | 1.75160 | 10196 ft | 302 kts | 38° |
| 2026-05-01 15:25 | 48.43521 | 1.76876 | 9980 ft | 303 kts | 32° |
| 2026-05-01 15:25 | 48.45352 | 1.78446 | 9402 ft | 301 kts | 32° |
| 2026-05-01 15:26 | 48.47172 | 1.79987 | 8490 ft | 300 kts | 31° |
| 2026-05-01 15:26 | 48.49003 | 1.81547 | 7397 ft | 304 kts | 32° |
| 2026-05-01 15:26 | 48.50845 | 1.83129 | 6315 ft | 306 kts | 32° |
| 2026-05-01 15:26 | 48.52685 | 1.84730 | 5199 ft | 307 kts | 32° |
| 2026-05-01 15:27 | 48.54525 | 1.86351 | 4437 ft | 297 kts | 32° |
| 2026-05-01 15:27 | 48.56229 | 1.87864 | 4231 ft | 278 kts | 32° |
| 2026-05-01 15:27 | 48.57895 | 1.89340 | 3976 ft | 278 kts | 31° |
| 2026-05-01 15:28 | 48.60732 | 1.93046 | 3790 ft | 270 kts | 66° |
| 2026-05-01 15:28 | 48.61070 | 1.95787 | 3776 ft | 260 kts | 100° |
| 2026-05-01 15:28 | 48.60694 | 1.98359 | 3700 ft | 245 kts | 104° |
| 2026-05-01 15:29 | 48.61678 | 2.02946 | 3423 ft | 229 kts | 56° |
| 2026-05-01 15:29 | 48.62537 | 2.04901 | 3281 ft | 218 kts | 60° |
| 2026-05-01 15:29 | 48.63927 | 2.08722 | 3127 ft | 192 kts | 65° |
| 2026-05-01 15:30 | 48.64906 | 2.11527 | 2977 ft | 169 kts | 65° |
| 2026-05-01 15:31 | 48.67190 | 2.18032 | 2345 ft | 162 kts | 64° |
| 2026-05-01 15:31 | 48.68226 | 2.20974 | 1915 ft | 153 kts | 65° |
| 2026-05-01 15:32 | 48.69185 | 2.23710 | 1504 ft | 142 kts | 63° |
| 2026-05-01 15:32 | 48.70111 | 2.26337 | 1144 ft | 136 kts | 63° |
| 2026-05-01 15:33 | 48.71463 | 2.30144 | 582 ft | 137 kts | 65° |
| 2026-05-01 15:34 | 48.72778 | 2.33858 | 302 ft | 123 kts | 63° |